Tolland, Massachusetts
Current Conditions -  °F | °C
As of 12:53 AM on Friday 28 Nov 2014 (Local Time) from KBAF Reporting Station
Overcast Overcast  
Wind Chill: 30°   Ceiling: 2300
Heat Index: 30°   Visibility: 10mi
Dew Point: 27°   Wind: 3mph
Humidity: 88%   Direction: 40°NE
Pressure: 30.01"   Gusts: NA
Location:  42.0855°N, 72.9568°W
Report Text: KBAF 280553Z 04003KT 10SM OVC023 M01/M03 A3001 RMK AO2 SNE09 SLP168 P0000 60000 T10111028 10006 21011 58005
Loading
Personal Weather Stations






























Interactive Weather Map New forecast layout! Learn more

10-Day Weather Forecast

Advertisements
Track Severe Weather on mobile